createdAt,value
2023-03-17T00:01:13.748Z,6.40
2023-03-17T00:03:44.747Z,6.41
2023-03-17T00:06:16.085Z,6.45
2023-03-17T00:08:44.254Z,6.44
2023-03-17T00:11:13.338Z,6.42
2023-03-17T00:13:40.553Z,6.38
2023-03-17T00:16:15.741Z,6.38
2023-03-17T00:18:44.756Z,6.37
2023-03-17T00:21:13.922Z,6.35
2023-03-17T00:23:43.590Z,6.36
2023-03-17T00:26:12.258Z,6.33
2023-03-17T00:28:41.051Z,6.34
2023-03-17T00:31:14.310Z,6.33
2023-03-17T00:33:43.167Z,6.30
2023-03-17T00:36:16.064Z,6.24
2023-03-17T00:38:43.345Z,6.22
2023-03-17T00:41:10.964Z,6.18
2023-03-17T00:43:38.282Z,6.20
2023-03-17T00:46:12.315Z,6.14
2023-03-17T00:48:39.793Z,6.16
2023-03-17T00:51:07.204Z,6.17
2023-03-17T00:53:36.029Z,6.14
2023-03-17T00:56:04.386Z,6.14
2023-03-17T00:58:33.870Z,6.16
2023-03-17T01:01:01.696Z,6.15
2023-03-17T01:03:29.730Z,6.10
2023-03-17T01:05:57.097Z,6.05
2023-03-17T01:08:24.981Z,6.09
2023-03-17T01:10:53.636Z,6.06
2023-03-17T01:13:20.892Z,6.04
2023-03-17T01:15:49.798Z,6.04
2023-03-17T01:18:19.414Z,6.07
2023-03-17T01:20:47.402Z,6.03
2023-03-17T01:23:14.755Z,6.05
2023-03-17T01:25:43.753Z,6.07
2023-03-17T01:28:15.240Z,6.05
2023-03-17T01:30:42.527Z,6.02
2023-03-17T01:33:11.124Z,6.05
2023-03-17T01:35:39.837Z,6.06
2023-03-17T01:38:07.407Z,6.05
2023-03-17T01:40:36.584Z,6.08
2023-03-17T01:43:18.995Z,6.06
2023-03-17T01:46:13.945Z,5.99
2023-03-17T01:48:43.817Z,6.04
2023-03-17T01:51:15.124Z,6.02
2023-03-17T01:53:44.696Z,6.05
2023-03-17T01:56:12.295Z,6.04
2023-03-17T01:58:41.813Z,6.05
2023-03-17T02:01:09.482Z,6.02
2023-03-17T02:03:36.948Z,6.07
2023-03-17T02:06:05.317Z,6.05
2023-03-17T02:08:32.622Z,6.00
2023-03-17T02:11:01.679Z,6.01
2023-03-17T02:13:29.653Z,5.97
2023-03-17T02:15:58.237Z,5.99
2023-03-17T02:18:25.528Z,5.97
2023-03-17T02:21:27.110Z,5.95
2023-03-17T02:23:55.529Z,5.95
2023-03-17T02:26:25.304Z,5.96
2023-03-17T02:28:52.786Z,6.02
2023-03-17T02:31:20.313Z,5.98
2023-03-17T02:33:47.596Z,5.99
2023-03-17T02:36:14.927Z,5.92
2023-03-17T02:38:46.305Z,5.93
2023-03-17T02:41:13.847Z,5.87
2023-03-17T02:43:41.219Z,5.88
2023-03-17T02:46:08.702Z,5.81
2023-03-17T02:48:37.085Z,5.77
2023-03-17T02:51:04.936Z,5.73
2023-03-17T02:53:32.246Z,5.67
2023-03-17T02:56:00.849Z,5.67
2023-03-17T02:58:28.205Z,5.63
2023-03-17T03:00:55.467Z,5.73
2023-03-17T03:03:22.728Z,5.73
2023-03-17T03:05:50.117Z,5.75
2023-03-17T03:08:17.507Z,5.76
2023-03-17T03:10:44.877Z,5.73
2023-03-17T03:13:13.579Z,5.75
2023-03-17T03:15:41.926Z,5.75
2023-03-17T03:18:09.626Z,5.74
2023-03-17T03:20:37.094Z,5.70
2023-03-17T03:23:04.436Z,5.67
2023-03-17T03:25:31.711Z,5.65
2023-03-17T03:27:58.950Z,5.60
2023-03-17T03:30:27.718Z,5.56
2023-03-17T03:32:56.107Z,5.50
2023-03-17T03:35:23.530Z,5.43
2023-03-17T03:37:50.749Z,5.41
2023-03-17T03:40:18.171Z,5.43
2023-03-17T03:42:45.477Z,5.40
2023-03-17T03:45:12.784Z,5.35
2023-03-17T03:47:41.568Z,5.35
2023-03-17T03:50:09.993Z,5.30
2023-03-17T03:52:37.806Z,5.32
2023-03-17T03:55:06.061Z,5.33
2023-03-17T03:57:33.468Z,5.34
2023-03-17T04:00:01.147Z,5.29
2023-03-17T04:02:28.415Z,5.25
2023-03-17T04:04:57.281Z,5.21
2023-03-17T04:07:24.793Z,5.20
2023-03-17T04:09:52.041Z,5.18
2023-03-17T04:12:19.467Z,5.16
2023-03-17T04:14:46.688Z,5.12
2023-03-17T04:17:14.324Z,5.13
2023-03-17T04:19:41.665Z,5.12
2023-03-17T04:22:12.475Z,5.11
2023-03-17T04:24:39.763Z,5.09
2023-03-17T04:27:07.054Z,5.08
2023-03-17T04:29:34.340Z,5.15
2023-03-17T04:32:01.790Z,5.12
2023-03-17T04:34:29.196Z,5.15
2023-03-17T04:36:56.439Z,5.16
2023-03-17T04:39:25.118Z,5.12
2023-03-17T04:41:52.364Z,5.09
2023-03-17T04:44:19.566Z,5.05
2023-03-17T04:46:46.746Z,5.07
2023-03-17T04:49:14.182Z,5.08
2023-03-17T04:51:41.387Z,5.06
2023-03-17T04:54:08.666Z,5.01
2023-03-17T04:56:37.322Z,5.02
2023-03-17T04:59:04.645Z,5.00
2023-03-17T05:01:31.841Z,4.98
2023-03-17T05:03:59.726Z,4.99
2023-03-17T05:06:27.085Z,5.00
2023-03-17T05:08:55.611Z,4.97
2023-03-17T05:11:22.811Z,4.99
2023-03-17T05:13:51.457Z,4.97
2023-03-17T05:16:18.728Z,4.96
2023-03-17T05:18:46.120Z,4.99
2023-03-17T05:21:13.387Z,4.93
2023-03-17T05:23:40.647Z,4.98
2023-03-17T05:26:08.081Z,4.92
2023-03-17T05:28:35.554Z,4.95
2023-03-17T05:31:04.267Z,4.94
2023-03-17T05:33:31.556Z,4.96
2023-03-17T05:35:58.748Z,4.96
2023-03-17T05:38:26.002Z,4.95
2023-03-17T05:40:53.153Z,4.95
2023-03-17T05:43:20.616Z,4.98
2023-03-17T05:45:47.894Z,5.03
2023-03-17T05:48:16.616Z,5.08
2023-03-17T05:50:43.825Z,5.04
2023-03-17T05:53:11.060Z,5.02
2023-03-17T05:55:38.344Z,5.07
2023-03-17T05:58:05.587Z,5.03
2023-03-17T06:00:33.427Z,5.03
2023-03-17T06:03:01.050Z,5.06
2023-03-17T06:05:29.735Z,5.09
2023-03-17T06:07:57.070Z,5.10
2023-03-17T06:10:24.757Z,5.14
2023-03-17T06:12:52.374Z,5.16
2023-03-17T06:15:20.293Z,5.18
2023-03-17T06:17:47.620Z,5.20
2023-03-17T06:20:14.977Z,5.23
2023-03-17T06:23:02.279Z,5.19
2023-03-17T06:25:31.307Z,5.20
2023-03-17T06:27:58.658Z,5.22
2023-03-17T06:30:25.923Z,5.25
2023-03-17T06:32:53.198Z,5.26
2023-03-17T06:35:20.533Z,5.28
2023-03-17T06:37:49.195Z,5.30
2023-03-17T06:40:16.637Z,5.34
2023-03-17T06:42:43.912Z,5.48
2023-03-17T06:45:13.704Z,5.52
2023-03-17T06:47:41.309Z,5.56
2023-03-17T06:50:10.218Z,5.61
2023-03-17T06:52:38.220Z,5.67
2023-03-17T06:55:08.319Z,5.73
2023-03-17T06:57:35.871Z,5.74
2023-03-17T07:00:04.058Z,5.82
2023-03-17T07:02:31.281Z,5.81
2023-03-17T07:04:58.606Z,5.78
2023-03-17T07:07:25.817Z,5.85
2023-03-17T07:09:53.266Z,5.91
2023-03-17T07:12:22.008Z,5.98
2023-03-17T07:14:49.324Z,6.05
2023-03-17T07:17:16.575Z,6.09
2023-03-17T07:19:43.992Z,6.14
2023-03-17T07:22:12.049Z,6.20
2023-03-17T07:24:39.786Z,6.22
2023-03-17T07:27:07.150Z,6.32
2023-03-17T07:29:35.718Z,6.41
2023-03-17T07:32:04.009Z,6.54
2023-03-17T07:34:31.317Z,6.57
2023-03-17T07:36:58.556Z,6.66
2023-03-17T07:39:25.985Z,6.81
2023-03-17T07:41:53.244Z,6.91
2023-03-17T07:44:20.947Z,6.98
2023-03-17T07:46:49.786Z,7.09
2023-03-17T07:49:20.938Z,7.25
2023-03-17T07:51:55.645Z,7.32
2023-03-17T07:54:23.750Z,7.45
2023-03-17T07:56:51.139Z,7.53
2023-03-17T07:59:18.527Z,7.64
2023-03-17T08:01:45.791Z,7.75
2023-03-17T08:04:14.640Z,7.74
2023-03-17T08:06:42.270Z,7.97
2023-03-17T08:09:10.205Z,7.98
2023-03-17T08:11:37.866Z,8.10
2023-03-17T08:14:05.585Z,8.12
2023-03-17T08:16:33.590Z,8.22
2023-03-17T08:19:01.055Z,8.32
2023-03-17T08:21:30.567Z,8.41
2023-03-17T08:23:57.818Z,8.54
2023-03-17T08:26:26.122Z,8.67
2023-03-17T08:28:53.600Z,8.81
2023-03-17T08:31:21.612Z,8.88
2023-03-17T08:33:51.770Z,9.03
2023-03-17T08:36:20.291Z,9.09
2023-03-17T08:38:49.688Z,9.12
2023-03-17T08:41:19.804Z,9.27
2023-03-17T08:43:48.252Z,9.42
2023-03-17T08:46:18.419Z,9.38
2023-03-17T08:48:47.598Z,9.58
2023-03-17T08:51:18.218Z,9.69
2023-03-17T08:53:46.760Z,9.79
2023-03-17T08:56:15.704Z,10.00
2023-03-17T08:58:43.845Z,10.03
2023-03-17T09:01:11.832Z,10.16
2023-03-17T09:03:39.936Z,10.31
2023-03-17T09:06:08.993Z,10.40
2023-03-17T09:08:37.433Z,10.60
2023-03-17T09:11:05.587Z,10.70
2023-03-17T09:13:34.988Z,10.53
2023-03-17T09:16:02.456Z,10.79
2023-03-17T09:18:30.047Z,10.65
2023-03-17T09:20:57.511Z,10.74
2023-03-17T09:23:25.282Z,10.93
2023-03-17T09:25:52.591Z,10.81
2023-03-17T09:28:19.884Z,10.94
2023-03-17T09:30:48.640Z,11.14
2023-03-17T09:33:16.388Z,11.14
2023-03-17T09:35:43.838Z,11.38
2023-03-17T09:38:11.277Z,11.55
2023-03-17T09:40:46.778Z,11.45
2023-03-17T09:43:23.968Z,11.58
2023-03-17T09:45:53.150Z,11.69
2023-03-17T09:48:31.187Z,11.84
2023-03-17T09:51:03.585Z,11.75
2023-03-17T09:53:35.060Z,12.16
2023-03-17T09:56:08.346Z,12.32
2023-03-17T09:58:37.551Z,12.60
2023-03-17T10:01:08.809Z,12.62
2023-03-17T10:03:36.654Z,12.92
2023-03-17T10:06:27.533Z,13.17
2023-03-17T10:09:00.681Z,13.49
2023-03-17T10:11:39.094Z,13.12
2023-03-17T10:14:16.736Z,13.33
2023-03-17T10:16:51.505Z,13.41
2023-03-17T10:19:23.782Z,13.78
2023-03-17T10:21:55.760Z,14.07
2023-03-17T10:24:24.387Z,15.31
2023-03-17T10:26:53.175Z,15.55
2023-03-17T10:29:22.424Z,15.85
2023-03-17T10:31:52.680Z,16.05
2023-03-17T10:34:23.654Z,16.78
2023-03-17T10:36:54.494Z,16.82
2023-03-17T10:39:24.447Z,16.20
2023-03-17T10:41:57.240Z,15.69
2023-03-17T10:44:43.715Z,15.25
2023-03-17T10:47:25.813Z,15.09
2023-03-17T10:49:56.384Z,15.39
2023-03-17T10:52:27.021Z,15.98
2023-03-17T10:54:54.665Z,15.67
2023-03-17T10:57:22.300Z,15.64
2023-03-17T10:59:52.507Z,15.93
2023-03-17T11:02:29.025Z,15.57
2023-03-17T11:05:00.688Z,15.52
2023-03-17T11:07:34.066Z,16.04
2023-03-17T11:10:03.329Z,16.39
2023-03-17T11:12:36.056Z,16.14
2023-03-17T11:15:06.687Z,16.19
2023-03-17T11:17:42.963Z,15.94
2023-03-17T11:20:36.678Z,16.47
2023-03-17T11:23:11.121Z,17.54
2023-03-17T11:25:42.300Z,17.40
2023-03-17T11:28:18.990Z,16.19
2023-03-17T11:30:58.382Z,16.99
2023-03-17T11:33:36.626Z,18.08
2023-03-17T11:36:35.404Z,18.77
2023-03-17T11:39:10.596Z,19.06
2023-03-17T11:41:45.150Z,18.76
2023-03-17T11:44:52.558Z,18.96
2023-03-17T11:47:41.138Z,18.19
2023-03-17T11:50:20.503Z,19.09
2023-03-17T11:52:59.015Z,19.93
2023-03-17T11:55:36.210Z,19.77
2023-03-17T11:58:06.292Z,18.85
2023-03-17T12:00:38.456Z,19.56
2023-03-17T12:03:14.808Z,19.43
2023-03-17T12:05:45.599Z,19.89
2023-03-17T12:08:20.464Z,19.72
2023-03-17T12:10:52.108Z,19.64
2023-03-17T12:13:25.517Z,20.06
2023-03-17T12:15:57.085Z,20.18
2023-03-17T12:18:29.945Z,20.67
2023-03-17T12:21:04.287Z,20.20
2023-03-17T12:23:39.455Z,19.85
2023-03-17T12:26:12.503Z,19.93
2023-03-17T12:28:46.515Z,19.72
2023-03-17T12:31:19.634Z,18.88
2023-03-17T12:33:52.562Z,19.36
2023-03-17T12:36:22.190Z,18.75
2023-03-17T12:38:53.976Z,19.75
2023-03-17T12:41:49.581Z,20.56
2023-03-17T12:44:30.981Z,19.93
2023-03-17T12:47:37.334Z,19.78
2023-03-17T12:50:24.751Z,20.22
2023-03-17T12:53:13.758Z,19.56
2023-03-17T12:55:45.175Z,19.66
2023-03-17T12:58:26.555Z,19.10
2023-03-17T13:01:02.334Z,19.27
2023-03-17T13:03:33.302Z,18.89
2023-03-17T13:06:03.205Z,18.68
2023-03-17T13:08:33.521Z,18.15
2023-03-17T13:11:19.901Z,18.01
2023-03-17T13:14:10.416Z,17.78
2023-03-17T13:16:39.610Z,18.22
2023-03-17T13:19:17.590Z,18.99
2023-03-17T13:21:48.742Z,19.11
2023-03-17T13:24:40.270Z,18.58
2023-03-17T13:27:11.659Z,19.04
2023-03-17T13:29:45.889Z,18.07
2023-03-17T13:32:31.047Z,18.18
2023-03-17T13:35:17.786Z,17.91
2023-03-17T13:38:14.862Z,17.95
2023-03-17T13:40:56.576Z,18.20
2023-03-17T13:43:48.668Z,17.74
2023-03-17T13:46:21.631Z,18.02
2023-03-17T13:48:49.900Z,17.89
2023-03-17T13:51:21.678Z,17.37
2023-03-17T13:53:53.488Z,17.25
2023-03-17T13:56:26.900Z,16.89
2023-03-17T13:59:12.240Z,16.83
2023-03-17T14:01:43.786Z,17.27
2023-03-17T14:04:24.528Z,17.14
2023-03-17T14:06:55.025Z,17.24
2023-03-17T14:09:34.202Z,17.06
2023-03-17T14:12:11.966Z,16.67
2023-03-17T14:14:47.825Z,17.12
2023-03-17T14:17:20.067Z,17.47
2023-03-17T14:20:19.500Z,17.62
2023-03-17T14:22:48.743Z,17.13
2023-03-17T14:25:18.280Z,16.78
2023-03-17T14:27:50.807Z,16.54
2023-03-17T14:30:20.950Z,16.37
2023-03-17T14:32:51.939Z,16.71
2023-03-17T14:35:20.092Z,16.78
2023-03-17T14:37:47.359Z,16.41
2023-03-17T14:40:23.359Z,16.30
2023-03-17T14:42:52.523Z,16.38
2023-03-17T14:45:22.660Z,16.54
2023-03-17T14:47:50.390Z,16.94
2023-03-17T14:50:23.200Z,16.87
2023-03-17T14:52:50.620Z,16.94
2023-03-17T14:55:18.059Z,17.07
2023-03-17T14:57:50.091Z,16.95
2023-03-17T15:00:34.341Z,17.28
2023-03-17T15:03:03.327Z,17.34
2023-03-17T15:05:41.142Z,17.21
2023-03-17T15:08:29.504Z,17.14
2023-03-17T15:10:58.725Z,17.17
2023-03-17T15:13:27.773Z,17.59
2023-03-17T15:15:56.467Z,17.56
2023-03-17T15:18:23.785Z,18.02
2023-03-17T15:20:51.503Z,17.90
2023-03-17T15:23:20.817Z,17.95
2023-03-17T15:25:50.377Z,17.48
2023-03-17T15:28:19.576Z,17.04
2023-03-17T15:30:49.418Z,17.45
2023-03-17T15:33:21.816Z,17.52
2023-03-17T15:35:49.884Z,17.25
2023-03-17T15:38:17.274Z,16.86
2023-03-17T15:40:44.809Z,17.13
2023-03-17T15:43:20.963Z,16.95
2023-03-17T15:45:54.001Z,16.95
2023-03-17T15:48:25.262Z,16.79
2023-03-17T15:50:53.829Z,16.92
2023-03-17T15:53:21.502Z,16.49
2023-03-17T15:55:49.033Z,16.34
2023-03-17T15:58:16.323Z,16.20
2023-03-17T16:00:47.159Z,16.18
2023-03-17T16:03:18.887Z,16.04
2023-03-17T16:05:47.987Z,15.99
2023-03-17T16:08:16.130Z,15.92
2023-03-17T16:10:44.620Z,15.91
2023-03-17T16:13:12.193Z,15.93
2023-03-17T16:15:42.559Z,15.83
2023-03-17T16:18:14.734Z,15.80
2023-03-17T16:20:44.293Z,15.80
2023-03-17T16:23:16.691Z,15.77
2023-03-17T16:25:45.232Z,15.71
2023-03-17T16:28:15.706Z,15.69
2023-03-17T16:30:43.536Z,15.58
2023-03-17T16:33:16.727Z,15.56
2023-03-17T16:35:44.268Z,15.54
2023-03-17T16:38:14.366Z,15.50
2023-03-17T16:40:42.636Z,15.41
2023-03-17T16:43:25.199Z,15.40
2023-03-17T16:45:55.901Z,15.28
2023-03-17T16:48:23.516Z,15.20
2023-03-17T16:50:51.190Z,15.12
2023-03-17T16:53:19.873Z,15.03
2023-03-17T16:55:47.464Z,14.93
2023-03-17T16:58:18.526Z,14.84
2023-03-17T17:00:46.457Z,14.76
2023-03-17T17:03:14.247Z,14.68
2023-03-17T17:05:42.798Z,14.62
2023-03-17T17:08:10.456Z,14.57
2023-03-17T17:10:39.760Z,14.52
2023-03-17T17:13:09.742Z,14.44
2023-03-17T17:15:38.486Z,14.40
2023-03-17T17:18:11.258Z,14.31
2023-03-17T17:20:42.996Z,14.24
2023-03-17T17:23:13.457Z,14.21
2023-03-17T17:25:42.613Z,14.17
2023-03-17T17:28:11.075Z,14.11
2023-03-17T17:30:38.300Z,14.08
2023-03-17T17:33:05.912Z,13.99
2023-03-17T17:35:33.377Z,13.96
2023-03-17T17:38:01.650Z,13.88
2023-03-17T17:40:31.009Z,13.80
2023-03-17T17:42:59.902Z,13.77
2023-03-17T17:45:27.127Z,13.77
2023-03-17T17:47:54.441Z,13.82
2023-03-17T17:50:25.140Z,13.73
2023-03-17T17:52:52.519Z,13.74
2023-03-17T17:55:19.898Z,13.74
2023-03-17T17:57:47.177Z,13.74
2023-03-17T18:00:17.495Z,13.69
2023-03-17T18:02:45.354Z,13.66
2023-03-17T18:05:13.152Z,13.69
2023-03-17T18:07:40.868Z,13.66
2023-03-17T18:10:14.008Z,13.68
2023-03-17T18:12:41.374Z,13.72
2023-03-17T18:15:09.775Z,13.72
2023-03-17T18:17:38.443Z,13.68
2023-03-17T18:20:07.215Z,13.70
2023-03-17T18:22:34.505Z,13.62
2023-03-17T18:25:01.719Z,13.68
2023-03-17T18:27:29.079Z,13.59
2023-03-17T18:29:58.499Z,13.55
2023-03-17T18:32:26.279Z,13.51
2023-03-17T18:34:56.250Z,13.51
2023-03-17T18:37:23.504Z,13.37
2023-03-17T18:40:09.710Z,13.32
2023-03-17T18:42:38.017Z,13.34
2023-03-17T18:45:06.147Z,13.30
2023-03-17T18:47:33.409Z,13.29
2023-03-17T18:50:02.375Z,13.38
2023-03-17T18:52:31.317Z,13.42
2023-03-17T18:54:58.897Z,13.41
2023-03-17T18:57:26.667Z,13.38
2023-03-17T18:59:54.398Z,13.49
2023-03-17T19:02:21.668Z,13.49
2023-03-17T19:04:48.935Z,13.63
2023-03-17T19:07:17.861Z,13.63
2023-03-17T19:09:45.293Z,13.58
2023-03-17T19:12:12.677Z,13.53
2023-03-17T19:14:39.976Z,13.56
2023-03-17T19:17:08.166Z,13.52
2023-03-17T19:19:35.526Z,13.50
2023-03-17T19:22:03.787Z,13.50
2023-03-17T19:24:34.556Z,13.59
2023-03-17T19:27:01.872Z,13.60
2023-03-17T19:29:29.383Z,13.58
2023-03-17T19:31:56.642Z,13.59
2023-03-17T19:34:23.872Z,13.59
2023-03-17T19:36:51.085Z,13.52
2023-03-17T19:39:18.376Z,13.49
2023-03-17T19:41:47.131Z,13.46
2023-03-17T19:44:14.382Z,13.46
2023-03-17T19:46:41.636Z,13.44
2023-03-17T19:49:08.860Z,13.46
2023-03-17T19:51:36.105Z,13.54
2023-03-17T19:54:03.400Z,13.52
2023-03-17T19:56:31.077Z,13.40
2023-03-17T19:58:59.736Z,13.41
2023-03-17T20:01:27.422Z,13.33
2023-03-17T20:03:54.773Z,13.35
2023-03-17T20:06:22.021Z,13.31
2023-03-17T20:08:49.283Z,13.21
2023-03-17T20:11:16.624Z,13.16
2023-03-17T20:13:43.831Z,13.19
2023-03-17T20:16:12.511Z,13.10
2023-03-17T20:18:40.233Z,13.06
2023-03-17T20:21:12.517Z,13.05
2023-03-17T20:23:40.316Z,13.19
2023-03-17T20:26:08.152Z,13.10
2023-03-17T20:28:35.518Z,13.10
2023-03-17T20:31:03.357Z,13.05
2023-03-17T20:33:33.026Z,13.12
2023-03-17T20:36:00.384Z,13.09
2023-03-17T20:38:28.126Z,13.05
2023-03-17T20:41:04.719Z,13.06
2023-03-17T20:43:31.952Z,13.07
2023-03-17T20:45:59.542Z,13.04
2023-03-17T20:48:26.879Z,12.99
2023-03-17T20:50:55.930Z,13.03
2023-03-17T20:53:23.309Z,13.01
2023-03-17T20:55:50.580Z,12.94
2023-03-17T20:58:17.858Z,12.89
2023-03-17T21:00:45.258Z,12.92
2023-03-17T21:03:12.627Z,12.87
2023-03-17T21:05:40.128Z,12.88
2023-03-17T21:08:08.894Z,12.85
2023-03-17T21:10:37.050Z,12.82
2023-03-17T21:13:04.826Z,12.85
2023-03-17T21:15:32.187Z,12.83
2023-03-17T21:17:59.521Z,12.83
2023-03-17T21:20:27.174Z,12.89
2023-03-17T21:22:54.500Z,12.86
2023-03-17T21:25:23.195Z,12.85
2023-03-17T21:27:50.709Z,12.82
2023-03-17T21:30:18.134Z,12.81
2023-03-17T21:32:45.645Z,12.81
2023-03-17T21:35:13.295Z,12.95
2023-03-17T21:37:40.578Z,12.91
2023-03-17T21:40:11.078Z,12.76
2023-03-17T21:42:39.730Z,12.78
2023-03-17T21:45:07.470Z,12.81
2023-03-17T21:47:34.836Z,12.73
2023-03-17T21:50:02.147Z,12.72
2023-03-17T21:52:29.864Z,12.73
2023-03-17T21:54:57.097Z,12.59
2023-03-17T21:57:24.360Z,12.62
2023-03-17T21:59:53.144Z,12.51
2023-03-17T22:02:20.458Z,12.54
2023-03-17T22:04:47.731Z,12.60
2023-03-17T22:07:15.685Z,12.55
2023-03-17T22:09:43.049Z,12.49
2023-03-17T22:12:10.885Z,12.51
2023-03-17T22:14:38.295Z,12.47
2023-03-17T22:17:07.277Z,12.45
2023-03-17T22:19:34.615Z,12.50
2023-03-17T22:22:02.038Z,12.50
2023-03-17T22:24:29.489Z,12.46
2023-03-17T22:26:56.763Z,12.46
2023-03-17T22:29:24.159Z,12.46
2023-03-17T22:31:52.143Z,12.46
2023-03-17T22:34:20.896Z,12.49
2023-03-17T22:36:48.231Z,12.57
2023-03-17T22:39:16.213Z,12.50
2023-03-17T22:41:44.132Z,12.44
2023-03-17T22:44:11.763Z,12.43
2023-03-17T22:46:39.769Z,12.43
2023-03-17T22:49:07.199Z,12.41
2023-03-17T22:51:36.535Z,12.44
2023-03-17T22:54:04.277Z,12.44
2023-03-17T22:56:31.678Z,12.41
2023-03-17T22:58:58.828Z,12.48
2023-03-17T23:01:26.362Z,12.40
2023-03-17T23:03:54.407Z,12.44
2023-03-17T23:06:22.156Z,12.42
2023-03-17T23:08:50.921Z,12.40
2023-03-17T23:11:20.008Z,12.47
2023-03-17T23:13:47.880Z,12.49
2023-03-17T23:16:16.227Z,12.46
2023-03-17T23:18:46.547Z,12.49
2023-03-17T23:21:20.591Z,12.43
2023-03-17T23:23:47.835Z,12.51
2023-03-17T23:26:16.796Z,12.41
2023-03-17T23:28:44.246Z,12.39
2023-03-17T23:31:11.583Z,12.40
2023-03-17T23:33:38.848Z,12.41
2023-03-17T23:36:07.104Z,12.43
2023-03-17T23:38:34.401Z,12.43
2023-03-17T23:41:01.854Z,12.45
2023-03-17T23:43:30.691Z,12.44
2023-03-17T23:45:58.031Z,12.41
2023-03-17T23:48:25.280Z,12.43
2023-03-17T23:50:53.594Z,12.46
2023-03-17T23:53:21.309Z,12.47
2023-03-17T23:55:49.454Z,12.54
2023-03-17T23:58:17.338Z,12.44
